DLH2281 LFKB-EDDM
Flight info
| Callsign | DLH2281 |
|---|---|
| Flight time | 1h 4m |
| Altitude | 35000 |
| Route | MOULE L146 ELB DCT BETMU/N0431F360 DCT BORMI DCT NAXAV DCT BEXOR DCT SOTOV/N0365F240 T101 BETOS BETOS1B |
| Aircraft | A320/M-SDE3FGHIRWY/LB1 |
Departure
| Time | 2026-05-06 18:25 |
|---|---|
| Airport | Bastia-Poretta International airport (LFKB) |
Arrival
| Time | 2026-05-06 19:30 |
|---|---|
| Airport | Munich Airport (EDDM) |
| Time | Latitude | Longitude | Altitude | Speed | Heading |
|---|---|---|---|---|---|
| 2026-05-06 17:51 | 42.54575 | 9.48270 | 36 ft | 0 kts | 282° |
| 2026-05-06 18:18 | 42.54575 | 9.48271 | 35 ft | 1 kts | 282° |
| 2026-05-06 18:18 | 42.54571 | 9.48292 | 35 ft | 3 kts | 285° |
| 2026-05-06 18:18 | 42.54565 | 9.48318 | 35 ft | 3 kts | 284° |
| 2026-05-06 18:18 | 42.54562 | 9.48345 | 35 ft | 3 kts | 271° |
| 2026-05-06 18:19 | 42.54561 | 9.48373 | 35 ft | 3 kts | 272° |
| 2026-05-06 18:19 | 42.54561 | 9.48396 | 35 ft | 3 kts | 264° |
| 2026-05-06 18:21 | 42.54559 | 9.48394 | 35 ft | 1 kts | 234° |
| 2026-05-06 18:21 | 42.54535 | 9.48401 | 34 ft | 5 kts | 161° |
| 2026-05-06 18:21 | 42.54504 | 9.48415 | 35 ft | 4 kts | 161° |
| 2026-05-06 18:22 | 42.54471 | 9.48421 | 35 ft | 6 kts | 185° |
| 2026-05-06 18:22 | 42.54419 | 9.48414 | 35 ft | 7 kts | 178° |
| 2026-05-06 18:22 | 42.54375 | 9.48431 | 35 ft | 7 kts | 164° |
| 2026-05-06 18:22 | 42.54289 | 9.48463 | 35 ft | 13 kts | 164° |
| 2026-05-06 18:23 | 42.54213 | 9.48494 | 35 ft | 12 kts | 159° |
| 2026-05-06 18:23 | 42.54151 | 9.48551 | 35 ft | 10 kts | 126° |
| 2026-05-06 18:23 | 42.54128 | 9.48646 | 35 ft | 12 kts | 91° |
| 2026-05-06 18:23 | 42.54155 | 9.48743 | 35 ft | 11 kts | 50° |
| 2026-05-06 18:24 | 42.54200 | 9.48802 | 35 ft | 6 kts | 43° |
| 2026-05-06 18:24 | 42.54233 | 9.48806 | 35 ft | 4 kts | 348° |
| 2026-05-06 18:24 | 42.54241 | 9.48803 | 35 ft | 0 kts | 345° |
| 2026-05-06 18:25 | 42.54301 | 9.48779 | 35 ft | 38 kts | 342° |
| 2026-05-06 18:25 | 42.54785 | 9.48575 | 34 ft | 105 kts | 343° |
| 2026-05-06 18:25 | 42.55663 | 9.48203 | 122 ft | 145 kts | 341° |
| 2026-05-06 18:25 | 42.56604 | 9.47827 | 712 ft | 144 kts | 352° |
| 2026-05-06 18:26 | 42.57528 | 9.48275 | 1238 ft | 150 kts | 43° |
| 2026-05-06 18:26 | 42.58051 | 9.49615 | 1527 ft | 176 kts | 76° |
| 2026-05-06 18:26 | 42.58279 | 9.51361 | 1804 ft | 200 kts | 75° |
| 2026-05-06 18:26 | 42.58551 | 9.53310 | 2143 ft | 223 kts | 76° |
| 2026-05-06 18:27 | 42.58888 | 9.55480 | 2534 ft | 247 kts | 76° |
| 2026-05-06 18:27 | 42.59280 | 9.57834 | 3139 ft | 263 kts | 77° |
| 2026-05-06 18:27 | 42.59696 | 9.60289 | 3898 ft | 271 kts | 78° |
| 2026-05-06 18:27 | 42.60121 | 9.62817 | 4757 ft | 276 kts | 78° |
| 2026-05-06 18:28 | 42.60784 | 9.65238 | 5581 ft | 282 kts | 58° |
| 2026-05-06 18:28 | 42.62131 | 9.67174 | 6421 ft | 287 kts | 33° |
| 2026-05-06 18:28 | 42.63951 | 9.68336 | 7214 ft | 291 kts | 21° |
| 2026-05-06 18:28 | 42.65843 | 9.69354 | 8018 ft | 295 kts | 20° |
| 2026-05-06 18:29 | 42.67772 | 9.70378 | 8816 ft | 300 kts | 19° |
| 2026-05-06 18:29 | 42.69724 | 9.71416 | 9608 ft | 304 kts | 19° |
| 2026-05-06 18:29 | 42.71718 | 9.72480 | 10253 ft | 314 kts | 19° |
| 2026-05-06 18:29 | 42.73832 | 9.73611 | 10483 ft | 338 kts | 19° |
| 2026-05-06 18:30 | 42.76068 | 9.74814 | 10926 ft | 351 kts | 20° |
| 2026-05-06 18:30 | 42.78326 | 9.76040 | 11575 ft | 357 kts | 20° |
| 2026-05-06 18:30 | 42.80640 | 9.77302 | 12269 ft | 362 kts | 20° |
| 2026-05-06 18:30 | 42.82992 | 9.78586 | 12973 ft | 366 kts | 20° |
| 2026-05-06 18:31 | 42.85372 | 9.79885 | 13657 ft | 371 kts | 20° |
| 2026-05-06 18:31 | 42.87784 | 9.81200 | 14270 ft | 375 kts | 20° |
| 2026-05-06 18:31 | 42.90223 | 9.82532 | 14884 ft | 379 kts | 19° |
| 2026-05-06 18:31 | 42.92683 | 9.83873 | 15486 ft | 383 kts | 19° |
| 2026-05-06 18:32 | 42.95170 | 9.85228 | 16098 ft | 387 kts | 19° |
| 2026-05-06 18:32 | 42.97682 | 9.86598 | 16706 ft | 390 kts | 19° |
| 2026-05-06 18:32 | 43.00185 | 9.87968 | 17292 ft | 394 kts | 19° |
| 2026-05-06 18:32 | 43.02740 | 9.89368 | 17895 ft | 398 kts | 19° |
| 2026-05-06 18:33 | 43.05323 | 9.90778 | 18440 ft | 402 kts | 19° |
| 2026-05-06 18:33 | 43.07935 | 9.92204 | 18943 ft | 406 kts | 19° |
| 2026-05-06 18:33 | 43.10571 | 9.93648 | 19431 ft | 410 kts | 19° |
| 2026-05-06 18:33 | 43.13228 | 9.95111 | 19929 ft | 414 kts | 19° |
| 2026-05-06 18:34 | 43.15916 | 9.96597 | 20412 ft | 418 kts | 19° |
| 2026-05-06 18:34 | 43.18628 | 9.98095 | 20902 ft | 423 kts | 19° |
| 2026-05-06 18:34 | 43.21366 | 9.99608 | 21402 ft | 427 kts | 19° |
| 2026-05-06 18:34 | 43.24098 | 10.01120 | 21882 ft | 431 kts | 19° |
| 2026-05-06 18:35 | 43.26890 | 10.02662 | 22367 ft | 435 kts | 19° |
| 2026-05-06 18:35 | 43.29708 | 10.04220 | 22850 ft | 439 kts | 19° |
| 2026-05-06 18:35 | 43.32557 | 10.05795 | 23326 ft | 443 kts | 19° |
| 2026-05-06 18:35 | 43.35430 | 10.07380 | 23743 ft | 447 kts | 19° |
| 2026-05-06 18:36 | 43.38324 | 10.08974 | 24131 ft | 450 kts | 19° |
| 2026-05-06 18:36 | 43.41234 | 10.10584 | 24531 ft | 453 kts | 19° |
| 2026-05-06 18:36 | 43.44162 | 10.12214 | 24910 ft | 456 kts | 19° |
| 2026-05-06 18:36 | 43.47110 | 10.13859 | 25290 ft | 459 kts | 19° |
| 2026-05-06 18:37 | 43.50045 | 10.15499 | 25647 ft | 462 kts | 19° |
| 2026-05-06 18:37 | 43.52056 | 10.16622 | 25889 ft | 464 kts | 19° |
| 2026-05-06 18:37 | 43.56030 | 10.18839 | 26354 ft | 467 kts | 19° |
| 2026-05-06 18:37 | 43.59060 | 10.20528 | 26695 ft | 470 kts | 19° |
| 2026-05-06 18:38 | 43.62098 | 10.22222 | 27039 ft | 472 kts | 19° |
| 2026-05-06 18:38 | 43.65151 | 10.23930 | 27388 ft | 475 kts | 19° |
| 2026-05-06 18:38 | 43.68223 | 10.25654 | 27726 ft | 478 kts | 19° |
| 2026-05-06 18:38 | 43.71302 | 10.27385 | 28063 ft | 480 kts | 19° |
| 2026-05-06 18:39 | 43.74367 | 10.29111 | 28375 ft | 483 kts | 19° |
| 2026-05-06 18:39 | 43.77532 | 10.30893 | 28714 ft | 486 kts | 19° |
| 2026-05-06 18:39 | 43.80631 | 10.32636 | 28993 ft | 488 kts | 19° |
| 2026-05-06 18:40 | 43.86959 | 10.36196 | 29592 ft | 493 kts | 19° |
| 2026-05-06 18:40 | 43.90143 | 10.37989 | 29892 ft | 496 kts | 19° |
| 2026-05-06 18:40 | 43.93340 | 10.39794 | 30162 ft | 498 kts | 19° |
| 2026-05-06 18:40 | 43.96557 | 10.41614 | 30414 ft | 500 kts | 19° |
| 2026-05-06 18:41 | 43.99792 | 10.43447 | 30662 ft | 502 kts | 19° |
| 2026-05-06 18:41 | 44.02984 | 10.45260 | 30903 ft | 503 kts | 19° |
| 2026-05-06 18:41 | 44.06222 | 10.47102 | 31117 ft | 505 kts | 19° |
| 2026-05-06 18:41 | 44.09472 | 10.48955 | 31351 ft | 506 kts | 19° |
| 2026-05-06 18:42 | 44.12738 | 10.50816 | 31671 ft | 505 kts | 19° |
| 2026-05-06 18:42 | 44.15997 | 10.52673 | 31953 ft | 508 kts | 19° |
| 2026-05-06 18:42 | 44.19280 | 10.54545 | 32121 ft | 510 kts | 19° |
| 2026-05-06 18:42 | 44.22573 | 10.56428 | 32371 ft | 511 kts | 19° |
| 2026-05-06 18:43 | 44.25852 | 10.58304 | 32647 ft | 511 kts | 19° |
| 2026-05-06 18:43 | 44.29154 | 10.60194 | 32921 ft | 511 kts | 19° |
| 2026-05-06 18:43 | 44.32412 | 10.61957 | 33201 ft | 508 kts | 12° |
| 2026-05-06 18:43 | 44.35867 | 10.63121 | 33466 ft | 505 kts | 8° |
| 2026-05-06 18:44 | 44.39268 | 10.64184 | 33740 ft | 505 kts | 8° |
| 2026-05-06 18:44 | 44.42684 | 10.65247 | 34054 ft | 504 kts | 8° |
| 2026-05-06 18:44 | 44.46109 | 10.66310 | 34324 ft | 503 kts | 8° |
| 2026-05-06 18:44 | 44.49524 | 10.67369 | 34610 ft | 502 kts | 8° |
| 2026-05-06 18:45 | 44.52929 | 10.68425 | 34861 ft | 501 kts | 8° |
| 2026-05-06 18:45 | 44.59678 | 10.70530 | 34938 ft | 492 kts | 8° |
| 2026-05-06 18:46 | 44.66293 | 10.72599 | 34925 ft | 490 kts | 8° |
| 2026-05-06 18:46 | 44.72931 | 10.74673 | 34919 ft | 488 kts | 7° |
| 2026-05-06 18:47 | 44.79604 | 10.76769 | 34921 ft | 487 kts | 7° |
| 2026-05-06 18:47 | 44.86216 | 10.78855 | 34911 ft | 487 kts | 8° |
| 2026-05-06 18:48 | 44.92827 | 10.80944 | 34911 ft | 487 kts | 7° |
| 2026-05-06 18:48 | 44.99435 | 10.83029 | 34893 ft | 487 kts | 7° |
| 2026-05-06 18:49 | 45.06004 | 10.85113 | 34906 ft | 487 kts | 8° |
| 2026-05-06 18:49 | 45.12660 | 10.87236 | 34911 ft | 488 kts | 8° |
| 2026-05-06 18:50 | 45.19292 | 10.89346 | 34904 ft | 488 kts | 8° |
| 2026-05-06 18:50 | 45.25880 | 10.91439 | 34922 ft | 489 kts | 8° |
| 2026-05-06 18:51 | 45.32521 | 10.93566 | 34879 ft | 490 kts | 8° |
| 2026-05-06 18:51 | 45.39209 | 10.94992 | 34877 ft | 485 kts | 1° |
| 2026-05-06 18:52 | 45.45923 | 10.96072 | 34879 ft | 485 kts | 1° |
| 2026-05-06 18:52 | 45.52642 | 10.97138 | 34884 ft | 486 kts | 1° |
| 2026-05-06 18:53 | 45.59311 | 10.98223 | 34931 ft | 486 kts | 1° |
| 2026-05-06 18:53 | 45.66078 | 10.99337 | 34921 ft | 486 kts | 1° |
| 2026-05-06 18:54 | 45.72799 | 11.00458 | 34933 ft | 486 kts | 1° |
| 2026-05-06 18:54 | 45.79462 | 11.01572 | 34925 ft | 485 kts | 1° |
| 2026-05-06 18:55 | 45.86177 | 11.02699 | 34945 ft | 486 kts | 1° |
| 2026-05-06 18:55 | 45.92979 | 11.03823 | 34956 ft | 497 kts | 1° |
| 2026-05-06 18:56 | 45.99865 | 11.04971 | 34966 ft | 499 kts | 2° |
| 2026-05-06 18:56 | 46.06760 | 11.06130 | 34969 ft | 498 kts | 1° |
| 2026-05-06 18:57 | 46.13587 | 11.07270 | 34961 ft | 497 kts | 1° |
| 2026-05-06 18:57 | 46.20460 | 11.08418 | 34968 ft | 497 kts | 2° |
| 2026-05-06 18:58 | 46.27329 | 11.09575 | 34881 ft | 498 kts | 2° |
| 2026-05-06 18:58 | 46.30775 | 11.10159 | 34636 ft | 498 kts | 1° |
| 2026-05-06 18:58 | 46.34224 | 11.10741 | 34399 ft | 499 kts | 1° |
| 2026-05-06 18:58 | 46.37676 | 11.11324 | 34164 ft | 501 kts | 1° |
| 2026-05-06 18:59 | 46.41142 | 11.11913 | 33903 ft | 502 kts | 1° |
| 2026-05-06 18:59 | 46.44623 | 11.12502 | 33633 ft | 503 kts | 1° |
| 2026-05-06 18:59 | 46.48048 | 11.13083 | 33364 ft | 503 kts | 1° |
| 2026-05-06 18:59 | 46.51533 | 11.13677 | 33086 ft | 504 kts | 1° |
| 2026-05-06 19:00 | 46.55013 | 11.14274 | 32814 ft | 505 kts | 1° |
| 2026-05-06 19:00 | 46.58502 | 11.14875 | 32549 ft | 506 kts | 1° |
| 2026-05-06 19:00 | 46.62001 | 11.15480 | 32276 ft | 507 kts | 1° |
| 2026-05-06 19:00 | 46.64374 | 11.15891 | 32102 ft | 507 kts | 1° |
| 2026-05-06 19:01 | 46.67833 | 11.16486 | 31840 ft | 507 kts | 1° |
| 2026-05-06 19:01 | 46.72524 | 11.17286 | 31494 ft | 507 kts | 1° |
| 2026-05-06 19:01 | 46.76021 | 11.17880 | 31230 ft | 507 kts | 1° |
| 2026-05-06 19:01 | 46.79532 | 11.18479 | 30978 ft | 509 kts | 1° |
| 2026-05-06 19:02 | 46.83052 | 11.19083 | 30722 ft | 510 kts | 1° |
| 2026-05-06 19:02 | 46.86575 | 11.19691 | 30478 ft | 510 kts | 2° |
| 2026-05-06 19:02 | 46.88909 | 11.20097 | 30308 ft | 510 kts | 2° |
| 2026-05-06 19:02 | 46.93571 | 11.20906 | 29972 ft | 510 kts | 1° |
| 2026-05-06 19:03 | 46.97099 | 11.21419 | 29708 ft | 509 kts | 359° |
| 2026-05-06 19:03 | 47.00628 | 11.21747 | 29392 ft | 507 kts | 357° |
| 2026-05-06 19:03 | 47.04148 | 11.21940 | 29119 ft | 505 kts | 356° |
| 2026-05-06 19:03 | 47.07658 | 11.22072 | 28829 ft | 505 kts | 356° |
| 2026-05-06 19:04 | 47.10033 | 11.22160 | 28591 ft | 505 kts | 356° |
| 2026-05-06 19:04 | 47.13546 | 11.22315 | 28054 ft | 505 kts | 357° |
| 2026-05-06 19:04 | 47.18200 | 11.22586 | 27371 ft | 506 kts | 358° |
| 2026-05-06 19:04 | 47.20536 | 11.22744 | 27028 ft | 506 kts | 358° |
| 2026-05-06 19:05 | 47.24048 | 11.22997 | 26512 ft | 507 kts | 358° |
| 2026-05-06 19:05 | 47.27561 | 11.23258 | 26001 ft | 501 kts | 0° |
| 2026-05-06 19:05 | 47.31009 | 11.23519 | 25694 ft | 474 kts | 0° |
| 2026-05-06 19:05 | 47.34232 | 11.23759 | 25057 ft | 456 kts | 0° |
| 2026-05-06 19:06 | 47.37372 | 11.23979 | 24328 ft | 450 kts | 0° |
| 2026-05-06 19:06 | 47.40453 | 11.24181 | 23865 ft | 449 kts | 0° |
| 2026-05-06 19:06 | 47.43573 | 11.24379 | 23355 ft | 449 kts | 0° |
| 2026-05-06 19:06 | 47.46695 | 11.24578 | 22774 ft | 449 kts | 1° |
| 2026-05-06 19:07 | 47.49814 | 11.24783 | 22266 ft | 449 kts | 1° |
| 2026-05-06 19:07 | 47.52936 | 11.24996 | 21757 ft | 449 kts | 1° |
| 2026-05-06 19:07 | 47.56058 | 11.25195 | 21243 ft | 450 kts | 0° |
| 2026-05-06 19:07 | 47.59183 | 11.25283 | 20679 ft | 443 kts | 359° |
| 2026-05-06 19:08 | 47.62198 | 11.25277 | 20074 ft | 424 kts | 358° |
| 2026-05-06 19:08 | 47.65095 | 11.25220 | 19482 ft | 409 kts | 357° |
| 2026-05-06 19:08 | 47.67886 | 11.25151 | 18914 ft | 395 kts | 358° |
| 2026-05-06 19:08 | 47.70599 | 11.25093 | 18350 ft | 384 kts | 358° |
| 2026-05-06 19:09 | 47.73215 | 11.25274 | 17869 ft | 371 kts | 8° |
| 2026-05-06 19:09 | 47.75671 | 11.26196 | 17389 ft | 358 kts | 20° |
| 2026-05-06 19:09 | 47.77975 | 11.27481 | 16913 ft | 351 kts | 20° |
| 2026-05-06 19:09 | 47.80244 | 11.28749 | 16444 ft | 347 kts | 20° |
| 2026-05-06 19:10 | 47.82497 | 11.30006 | 15987 ft | 345 kts | 19° |
| 2026-05-06 19:10 | 47.84735 | 11.31241 | 15533 ft | 342 kts | 19° |
| 2026-05-06 19:10 | 47.86948 | 11.32454 | 15111 ft | 342 kts | 17° |
| 2026-05-06 19:10 | 47.89268 | 11.33334 | 14754 ft | 339 kts | 7° |
| 2026-05-06 19:11 | 47.91606 | 11.33688 | 14387 ft | 337 kts | 0° |
| 2026-05-06 19:11 | 47.93944 | 11.33880 | 14012 ft | 337 kts | 0° |
| 2026-05-06 19:11 | 47.96278 | 11.34078 | 13668 ft | 336 kts | 0° |
| 2026-05-06 19:11 | 47.98579 | 11.34277 | 13271 ft | 335 kts | 0° |
| 2026-05-06 19:12 | 48.00896 | 11.34479 | 12876 ft | 333 kts | 0° |
| 2026-05-06 19:12 | 48.03195 | 11.34698 | 12483 ft | 331 kts | 3° |
| 2026-05-06 19:12 | 48.05463 | 11.35338 | 12093 ft | 332 kts | 14° |
| 2026-05-06 19:12 | 48.07619 | 11.36574 | 11744 ft | 332 kts | 25° |
| 2026-05-06 19:13 | 48.09576 | 11.38340 | 11500 ft | 327 kts | 35° |
| 2026-05-06 19:13 | 48.11346 | 11.40442 | 11252 ft | 322 kts | 38° |
| 2026-05-06 19:13 | 48.13075 | 11.42529 | 11006 ft | 316 kts | 38° |
| 2026-05-06 19:13 | 48.14765 | 11.44570 | 10773 ft | 308 kts | 38° |
| 2026-05-06 19:14 | 48.16406 | 11.46550 | 10555 ft | 298 kts | 38° |
| 2026-05-06 19:14 | 48.18007 | 11.48478 | 10334 ft | 293 kts | 37° |
| 2026-05-06 19:14 | 48.19578 | 11.50372 | 10114 ft | 287 kts | 37° |
| 2026-05-06 19:14 | 48.21096 | 11.52294 | 9895 ft | 285 kts | 44° |
| 2026-05-06 19:15 | 48.22398 | 11.54578 | 9649 ft | 284 kts | 56° |
| 2026-05-06 19:15 | 48.23380 | 11.57134 | 9407 ft | 283 kts | 67° |
| 2026-05-06 19:15 | 48.24038 | 11.59852 | 9073 ft | 281 kts | 77° |
| 2026-05-06 19:15 | 48.24386 | 11.62716 | 8730 ft | 278 kts | 86° |
| 2026-05-06 19:16 | 48.24606 | 11.65574 | 8385 ft | 276 kts | 85° |
| 2026-05-06 19:16 | 48.24831 | 11.68439 | 8073 ft | 274 kts | 85° |
| 2026-05-06 19:16 | 48.25053 | 11.71250 | 7995 ft | 272 kts | 84° |
| 2026-05-06 19:16 | 48.25274 | 11.74079 | 8005 ft | 273 kts | 85° |
| 2026-05-06 19:17 | 48.25497 | 11.76954 | 8010 ft | 274 kts | 84° |
| 2026-05-06 19:17 | 48.25714 | 11.79785 | 8007 ft | 274 kts | 85° |
| 2026-05-06 19:17 | 48.25934 | 11.82648 | 7714 ft | 277 kts | 84° |
| 2026-05-06 19:17 | 48.26154 | 11.85502 | 7364 ft | 275 kts | 84° |
| 2026-05-06 19:18 | 48.26375 | 11.88392 | 7017 ft | 275 kts | 84° |
| 2026-05-06 19:18 | 48.26589 | 11.91229 | 6670 ft | 274 kts | 84° |
| 2026-05-06 19:18 | 48.26804 | 11.94058 | 6336 ft | 273 kts | 83° |
| 2026-05-06 19:18 | 48.27017 | 11.96883 | 6039 ft | 269 kts | 82° |
| 2026-05-06 19:19 | 48.27227 | 11.99678 | 6005 ft | 270 kts | 83° |
| 2026-05-06 19:19 | 48.27439 | 12.02520 | 6009 ft | 271 kts | 83° |
| 2026-05-06 19:19 | 48.27649 | 12.05351 | 6009 ft | 269 kts | 83° |
| 2026-05-06 19:19 | 48.27854 | 12.08110 | 6002 ft | 269 kts | 83° |
| 2026-05-06 19:20 | 48.28061 | 12.10909 | 5745 ft | 269 kts | 84° |
| 2026-05-06 19:20 | 48.28265 | 12.13693 | 5494 ft | 266 kts | 83° |
| 2026-05-06 19:20 | 48.28466 | 12.16447 | 5242 ft | 266 kts | 83° |
| 2026-05-06 19:20 | 48.28669 | 12.19204 | 5056 ft | 262 kts | 83° |
| 2026-05-06 19:21 | 48.28863 | 12.21856 | 5004 ft | 249 kts | 82° |
| 2026-05-06 19:21 | 48.29081 | 12.24486 | 5009 ft | 246 kts | 75° |
| 2026-05-06 19:21 | 48.29841 | 12.26705 | 5015 ft | 236 kts | 39° |
| 2026-05-06 19:21 | 48.31189 | 12.27917 | 5019 ft | 221 kts | 4° |
| 2026-05-06 19:22 | 48.32631 | 12.27801 | 5009 ft | 202 kts | 329° |
| 2026-05-06 19:22 | 48.33664 | 12.26532 | 5015 ft | 190 kts | 301° |
| 2026-05-06 19:22 | 48.34362 | 12.24843 | 5015 ft | 190 kts | 295° |
| 2026-05-06 19:22 | 48.34999 | 12.23108 | 5014 ft | 190 kts | 295° |
| 2026-05-06 19:23 | 48.35628 | 12.21363 | 5011 ft | 190 kts | 295° |
| 2026-05-06 19:23 | 48.36255 | 12.19619 | 5011 ft | 190 kts | 295° |
| 2026-05-06 19:23 | 48.36864 | 12.17891 | 5010 ft | 189 kts | 290° |
| 2026-05-06 19:23 | 48.37124 | 12.15991 | 5008 ft | 187 kts | 268° |
| 2026-05-06 19:24 | 48.36991 | 12.14049 | 5008 ft | 184 kts | 265° |
| 2026-05-06 19:24 | 48.36856 | 12.12229 | 5027 ft | 165 kts | 265° |
| 2026-05-06 19:24 | 48.36734 | 12.10573 | 5015 ft | 154 kts | 265° |
| 2026-05-06 19:24 | 48.36621 | 12.09037 | 5001 ft | 145 kts | 265° |
| 2026-05-06 19:25 | 48.36510 | 12.07533 | 4960 ft | 144 kts | 266° |
| 2026-05-06 19:25 | 48.36400 | 12.06045 | 4838 ft | 143 kts | 265° |
| 2026-05-06 19:25 | 48.36290 | 12.04562 | 4673 ft | 142 kts | 266° |
| 2026-05-06 19:25 | 48.36181 | 12.03083 | 4492 ft | 142 kts | 266° |
| 2026-05-06 19:26 | 48.36074 | 12.01643 | 4308 ft | 141 kts | 266° |
| 2026-05-06 19:26 | 48.35962 | 12.00148 | 4116 ft | 141 kts | 266° |
| 2026-05-06 19:26 | 48.35853 | 11.98688 | 3926 ft | 139 kts | 265° |
| 2026-05-06 19:26 | 48.35747 | 11.97259 | 3766 ft | 137 kts | 265° |
| 2026-05-06 19:27 | 48.35641 | 11.95843 | 3587 ft | 136 kts | 265° |
| 2026-05-06 19:27 | 48.35535 | 11.94431 | 3408 ft | 136 kts | 265° |
| 2026-05-06 19:27 | 48.35429 | 11.93024 | 3230 ft | 136 kts | 265° |
| 2026-05-06 19:27 | 48.35322 | 11.91603 | 3043 ft | 138 kts | 264° |
| 2026-05-06 19:28 | 48.35213 | 11.90163 | 2854 ft | 139 kts | 264° |
| 2026-05-06 19:28 | 48.35108 | 11.88723 | 2675 ft | 136 kts | 263° |
| 2026-05-06 19:28 | 48.35003 | 11.87343 | 2496 ft | 131 kts | 264° |
| 2026-05-06 19:28 | 48.34893 | 11.85930 | 2276 ft | 135 kts | 264° |
| 2026-05-06 19:29 | 48.34782 | 11.84508 | 2055 ft | 137 kts | 263° |
| 2026-05-06 19:29 | 48.34705 | 11.83452 | 1901 ft | 136 kts | 262° |
| 2026-05-06 19:29 | 48.34633 | 11.82454 | 1786 ft | 134 kts | 261° |
| 2026-05-06 19:30 | 48.34372 | 11.79077 | 1485 ft | 87 kts | 264° |
| 2026-05-06 19:30 | 48.34319 | 11.78390 | 1482 ft | 41 kts | 262° |
| 2026-05-06 19:30 | 48.34310 | 11.78091 | 1482 ft | 25 kts | 277° |
| 2026-05-06 19:30 | 48.34352 | 11.77870 | 1477 ft | 19 kts | 293° |
| 2026-05-06 19:31 | 48.34392 | 11.77727 | 1485 ft | 13 kts | 293° |
| 2026-05-06 19:31 | 48.34416 | 11.77644 | 1479 ft | 0 kts | 294° |
| 2026-05-06 19:31 | 48.34441 | 11.77558 | 1480 ft | 14 kts | 294° |
| 2026-05-06 19:32 | 48.34504 | 11.77448 | 1481 ft | 15 kts | 340° |
| 2026-05-06 19:32 | 48.34598 | 11.77428 | 1485 ft | 11 kts | 3° |
| 2026-05-06 19:32 | 48.34633 | 11.77499 | 1485 ft | 9 kts | 86° |
| 2026-05-06 19:32 | 48.34643 | 11.77634 | 1485 ft | 15 kts | 83° |
| 2026-05-06 19:33 | 48.34654 | 11.77779 | 1479 ft | 13 kts | 83° |
| 2026-05-06 19:33 | 48.34661 | 11.77868 | 1485 ft | 12 kts | 83° |
| 2026-05-06 19:33 | 48.34670 | 11.77983 | 1485 ft | 13 kts | 83° |
| 2026-05-06 19:33 | 48.34682 | 11.78136 | 1473 ft | 16 kts | 83° |
| 2026-05-06 19:34 | 48.34695 | 11.78306 | 1482 ft | 16 kts | 83° |
| 2026-05-06 19:34 | 48.34707 | 11.78464 | 1485 ft | 16 kts | 84° |
| 2026-05-06 19:34 | 48.34721 | 11.78640 | 1482 ft | 17 kts | 83° |
| 2026-05-06 19:34 | 48.34735 | 11.78821 | 1481 ft | 17 kts | 83° |
| 2026-05-06 19:35 | 48.34748 | 11.78989 | 1485 ft | 16 kts | 83° |
| 2026-05-06 19:35 | 48.34763 | 11.79173 | 1485 ft | 20 kts | 84° |
| 2026-05-06 19:35 | 48.34776 | 11.79365 | 1481 ft | 16 kts | 83° |
| 2026-05-06 19:35 | 48.34787 | 11.79504 | 1481 ft | 11 kts | 83° |
| 2026-05-06 19:36 | 48.34835 | 11.79560 | 1485 ft | 9 kts | 359° |
| 2026-05-06 19:36 | 48.34903 | 11.79549 | 1485 ft | 8 kts | 353° |
| 2026-05-06 19:36 | 48.34952 | 11.79541 | 1485 ft | 6 kts | 354° |
| 2026-05-06 19:36 | 48.34994 | 11.79535 | 1480 ft | 8 kts | 353° |
| 2026-05-06 19:37 | 48.35070 | 11.79519 | 1484 ft | 11 kts | 354° |
| 2026-05-06 19:37 | 48.35122 | 11.79595 | 1479 ft | 15 kts | 79° |
| 2026-05-06 19:37 | 48.35134 | 11.79746 | 1485 ft | 14 kts | 83° |
| 2026-05-06 19:37 | 48.35145 | 11.79881 | 1485 ft | 13 kts | 83° |
| 2026-05-06 19:38 | 48.35156 | 11.80021 | 1485 ft | 13 kts | 83° |
| 2026-05-06 19:38 | 48.35168 | 11.80146 | 1482 ft | 12 kts | 72° |
| 2026-05-06 19:38 | 48.35236 | 11.80182 | 1480 ft | 14 kts | 352° |
| 2026-05-06 19:38 | 48.35345 | 11.80161 | 1475 ft | 17 kts | 353° |
| 2026-05-06 19:39 | 48.35452 | 11.80133 | 1482 ft | 16 kts | 354° |
| 2026-05-06 19:39 | 48.35538 | 11.80119 | 1481 ft | 12 kts | 354° |
| 2026-05-06 19:39 | 48.35619 | 11.80105 | 1485 ft | 9 kts | 354° |
| 2026-05-06 19:39 | 48.35670 | 11.80087 | 1479 ft | 7 kts | 316° |
| 2026-05-06 19:40 | 48.35671 | 11.80016 | 1480 ft | 8 kts | 262° |
| 2026-05-06 19:40 | 48.35666 | 11.79953 | 1483 ft | 0 kts | 264° |